Time;durP1;ratioP1;P1;durP2;ratioP2;P2;SDS_P1;SDS_P2;PMS_P1;PMS_P2;Temp;Humidity;BMP_temperature;BMP_pressure;BME280_temperature;BME280_humidity;BME280_pressure;Samples;Min_cycle;Max_cycle;Signal;HPM_P1;HPM_P2
2023/01/26 00:02:04;;;;;;;;;;;3.20;86.20;;;-151.14;100.00;62537.16;4970464;28;19929;-81
2023/01/26 00:04:32;;;;;;;;;;;3.20;86.10;;;-151.14;100.00;62537.16;4954278;29;19923;-81
2023/01/26 00:07:00;;;;;;;;;;;3.20;86.00;;;-151.14;100.00;62537.16;4954067;29;19922;-81
2023/01/26 00:09:28;;;;;;;;;;;3.20;86.20;;;-151.14;100.00;62537.16;4969610;28;19929;-81
2023/01/26 00:11:56;;;;;;;;;;;3.20;86.20;;;-151.14;100.00;62537.16;4970182;28;20210;-80
2023/01/26 00:14:24;;;;;;;;;;;3.20;86.20;;;-151.14;100.00;62537.16;4970111;28;19923;-80
2023/01/26 00:16:53;;;;;;;;;;;3.10;86.30;;;-151.14;100.00;62537.16;4938264;29;19923;-81
2023/01/26 00:19:22;;;;;;;;;;;3.20;86.10;;;-151.14;100.00;62537.16;4953659;29;19923;-81
2023/01/26 00:21:50;;;;;;;;;;;3.20;86.20;;;-151.14;100.00;62537.16;4970002;28;19922;-81
2023/01/26 00:24:18;;;;;;;;;;;3.10;86.20;;;-151.14;100.00;62537.16;4953886;29;19923;-81
2023/01/26 00:26:46;;;;;;;;;;;3.10;86.30;;;-151.14;100.00;62537.16;4953820;29;19923;-81
2023/01/26 00:29:14;;;;;;;;;;;3.10;86.10;;;-151.14;100.00;62537.16;4937445;29;19929;-80
2023/01/26 00:31:42;;;;;;;;;;;3.20;86.30;;;-151.14;100.00;62537.16;4938326;29;19922;-81
2023/01/26 00:34:10;;;;;;;;;;;3.10;86.00;;;-151.14;100.00;62537.16;4937829;29;20117;-81
2023/01/26 00:36:39;;;;;;;;;;;3.10;86.00;;;-151.14;100.00;62537.16;4938289;29;19923;-80
2023/01/26 00:39:07;;;;;;;;;;;3.10;86.20;;;-151.14;100.00;62537.16;4936195;29;19923;-81
2023/01/26 00:44:21;;;;;;;;;;;3.10;86.30;;;18.09;100.00;62537.16;4953529;29;20031;-80
2023/01/26 00:46:49;;;;;;;;;;;3.10;86.20;;;-151.14;100.00;62537.16;4922098;29;19923;-81
2023/01/26 00:49:17;;;;;;;;;;;3.10;86.20;;;;;;4921453;29;20122;-81
2023/01/26 00:51:46;;;;;;;;;;;3.10;86.30;;;-151.14;100.00;62537.16;4969687;28;19929;-81
2023/01/26 00:54:15;;;;;;;;;;;3.10;86.20;;;-151.14;100.00;62537.16;4937585;29;19929;-80
2023/01/26 00:56:43;;;;;;;;;;;3.10;86.10;;;-151.14;100.00;62537.16;4937751;29;19923;-81
2023/01/26 00:59:11;;;;;;;;;;;3.10;86.20;;;1.79;100.00;62537.16;4936925;29;20121;-81
2023/01/26 01:01:39;;;;;;;;;;;3.10;86.20;;;-151.14;100.00;62537.16;4937525;29;19923;-81
2023/01/26 01:04:07;;;;;;;;;;;3.10;86.20;;;-151.14;100.00;62537.16;4937567;29;19929;-81
2023/01/26 01:06:35;;;;;;;;;;;3.10;86.30;;;-151.14;100.00;62537.16;4953290;29;19922;-81
2023/01/26 01:09:05;;;;;;;;;;;3.10;86.20;;;-151.14;100.00;62537.16;4936898;29;20121;-81
2023/01/26 01:11:33;;;;;;;;;;;3.10;86.20;;;-151.14;100.00;62537.16;4937209;29;19945;-80
2023/01/26 01:14:01;;;;;;;;;;;3.10;86.30;;;-151.14;100.00;62537.16;4937394;29;20122;-80
2023/01/26 01:16:29;;;;;;;;;;;3.10;86.20;;;-151.14;100.00;62537.16;4953194;29;20215;-81
2023/01/26 01:18:58;;;;;;;;;;;3.10;86.30;;;-151.14;100.00;62537.16;4952570;29;19922;-81
2023/01/26 01:21:26;;;;;;;;;;;3.10;86.30;;;-151.14;100.00;62537.16;4953026;29;19922;-81
2023/01/26 01:23:54;;;;;;;;;;;3.10;86.30;;;-151.14;100.00;62537.16;4952859;29;20125;-81
2023/01/26 01:26:23;;;;;;;;;;;3.10;86.40;;;-151.14;100.00;62537.16;4969146;28;19923;-81
2023/01/26 01:28:53;;;;;;;;;;;3.10;86.30;;;-151.14;100.00;62537.16;4936427;29;19923;-80
2023/01/26 01:31:21;;;;;;;;;;;3.10;86.40;;;-151.14;100.00;62537.16;4969105;28;19922;-80
2023/01/26 01:33:50;;;;;;;;;;;3.10;86.20;;;-151.14;100.00;62537.16;4936877;29;19922;-81
2023/01/26 01:36:18;;;;;;;;;;;3.10;86.20;;;-151.14;100.00;62537.16;4937083;29;19922;-81
2023/01/26 01:38:46;;;;;;;;;;;3.10;86.30;;;-151.14;100.00;62537.16;4952408;29;19922;-81
2023/01/26 01:41:14;;;;;;;;;;;3.10;86.30;;;-151.14;100.00;62537.16;4953030;29;19928;-80
2023/01/26 01:43:44;;;;;;;;;;;3.10;86.40;;;-151.14;100.00;62537.16;4952777;29;19944;-80
2023/01/26 01:46:17;;;;;;;;;;;3.10;86.40;;;-151.14;100.00;62537.16;4921106;29;19922;-80
2023/01/26 01:48:50;;;;;;;;;;;3.10;86.30;;;-151.14;100.00;62537.16;4952182;29;19923;-81
2023/01/26 01:51:21;;;;;;;;;;;3.10;86.40;;;-151.14;100.00;62537.16;4936353;29;19929;-81
2023/01/26 01:53:50;;;;;;;;;;;3.10;86.40;;;-151.14;100.00;62537.16;4936805;29;19923;-81
2023/01/26 01:56:20;;;;;;;;;;;3.10;86.30;;;-151.14;100.00;62537.16;4968554;28;20206;-81
2023/01/26 01:58:52;;;;;;;;;;;3.10;86.40;;;-151.14;100.00;62537.16;4951980;29;19923;-81
2023/01/26 02:01:20;;;;;;;;;;;3.10;86.30;;;-151.14;100.00;62537.16;4952258;29;19922;-81
2023/01/26 02:03:48;;;;;;;;;;;3.10;86.40;;;18.09;100.00;62537.16;4952523;29;19922;-81
2023/01/26 02:06:18;;;;;;;;;;;3.10;86.20;;;-151.14;100.00;62537.16;4936489;29;19922;-81
2023/01/26 02:08:47;;;;;;;;;;;3.10;86.40;;;-151.14;100.00;62537.16;4951859;29;19929;-81
2023/01/26 02:11:17;;;;;;;;;;;3.10;86.30;;;-151.14;100.00;62537.16;4920661;29;19928;-81
2023/01/26 02:13:46;;;;;;;;;;;3.10;86.30;;;-151.14;100.00;62537.16;4936594;29;20232;-80
2023/01/26 02:16:15;;;;;;;;;;;3.10;86.30;;;-151.14;100.00;62537.16;4936596;29;19923;-81
2023/01/26 02:18:44;;;;;;;;;;;3.10;86.30;;;-151.14;100.00;62537.16;4952877;29;19923;-80
2023/01/26 02:21:15;;;;;;;;;;;3.10;86.40;;;18.09;100.00;62537.16;4952504;29;19930;-80
2023/01/26 02:23:50;;;;;;;;;;;3.10;86.30;;;-151.14;100.00;62537.16;4951150;29;19923;-81
2023/01/26 02:26:20;;;;;;;;;;;3.10;86.20;;;-151.14;100.00;62537.16;4952208;29;19922;-81
2023/01/26 02:28:48;;;;;;;;;;;3.10;86.20;;;-151.14;100.00;62537.16;4967824;28;19922;-81
2023/01/26 02:31:16;;;;;;;;;;;3.10;86.40;;;-151.14;100.00;62537.16;4968003;28;19948;-81
2023/01/26 02:33:45;;;;;;;;;;;3.10;86.40;;;-151.14;100.00;62537.16;4952058;29;19923;-81
2023/01/26 02:36:18;;;;;;;;;;;3.10;86.40;;;-151.14;100.00;62537.16;4952075;29;20122;-81
2023/01/26 02:38:51;;;;;;;;;;;3.10;86.30;;;-151.14;100.00;62537.16;4951626;29;20113;-81
2023/01/26 02:44:02;;;;;;;;;;;3.10;86.40;;;-151.14;100.00;62537.16;4951676;29;19922;-81
2023/01/26 02:46:30;;;;;;;;;;;3.10;86.40;;;-151.14;100.00;62537.16;4952006;29;19922;-81
2023/01/26 02:51:43;;;;;;;;;;;3.10;86.40;;;-151.14;100.00;62537.16;4967987;28;19929;-81
2023/01/26 02:55:21;;;;;;;;;;;3.10;86.40;;;-151.14;100.00;62537.16;4952034;29;20121;-81
2023/01/26 02:57:01;;;;;;;;;;;3.10;86.50;;;-151.14;100.00;62537.16;4951762;29;19922;-81
2023/01/26 02:59:29;;;;;;;;;;;3.10;86.50;;;1.72;100.00;62537.16;4951481;29;19922;-81
2023/01/26 03:01:57;;;;;;;;;;;3.10;86.40;;;-151.14;100.00;62537.16;4952588;29;19929;-81
2023/01/26 03:04:25;;;;;;;;;;;3.10;86.40;;;-151.14;100.00;62537.16;4971289;28;19929;-81
2023/01/26 03:06:54;;;;;;;;;;;3.10;86.40;;;-151.14;100.00;62537.16;4955080;29;19928;-81
2023/01/26 03:09:22;;;;;;;;;;;3.10;86.30;;;-151.14;100.00;62537.16;4954496;29;20214;-80
2023/01/26 03:11:52;;;;;;;;;;;3.10;86.30;;;-151.14;100.00;62537.16;4938954;29;19922;-81
2023/01/26 03:14:21;;;;;;;;;;;3.10;86.40;;;-151.14;100.00;62537.16;4971097;28;20096;-81
2023/01/26 03:16:49;;;;;;;;;;;3.10;86.30;;;-151.14;100.00;62537.16;4938888;29;19937;-81
2023/01/26 03:27:41;;;;;;;;;;;3.00;86.30;;;-151.14;100.00;62537.16;4954700;29;19922;-81
2023/01/26 03:30:11;;;;;;;;;;;3.10;86.40;;;-151.14;100.00;62537.16;4954345;29;19923;-81
2023/01/26 03:32:39;;;;;;;;;;;3.00;86.30;;;-151.14;100.00;62537.16;4955609;29;19928;-81
2023/01/26 03:35:14;;;;;;;;;;;3.10;86.30;;;18.10;100.00;62537.16;4954833;29;19923;-81
2023/01/26 03:37:42;;;;;;;;;;;3.00;86.30;;;-151.14;100.00;62537.16;4954549;29;19922;-81
2023/01/26 03:56:56;;;;;;;;;;;3.00;86.40;;;1.67;100.00;81388.81;4955390;29;19929;-81
2023/01/26 03:59:36;;;;;;;;;;;3.00;86.50;;;-151.14;100.00;62537.16;4953860;29;20232;-81
2023/01/26 04:10:27;;;;;;;;;;;3.00;86.50;;;1.65;100.00;62537.16;4954138;29;19929;-81
2023/01/26 04:21:29;;;;;;;;;;;3.00;86.60;;;1.64;100.00;62537.16;4953982;29;20145;-81
2023/01/26 04:23:58;;;;;;;;;;;3.00;86.50;;;1.65;100.00;62537.16;4954090;29;19923;-81
2023/01/26 04:26:33;;;;;;;;;;;3.00;86.60;;;1.63;100.00;62537.16;4953926;29;20237;-81
2023/01/26 04:29:02;;;;;;;;;;;3.00;86.50;;;-151.14;100.00;62537.16;4953319;29;19929;-81
2023/01/26 04:31:30;;;;;;;;;;;3.00;86.50;;;-151.14;100.00;62537.16;4953891;29;20232;-81
2023/01/26 04:34:00;;;;;;;;;;;3.00;86.50;;;-151.14;100.00;62537.16;4970006;28;19923;-81
2023/01/26 04:36:29;;;;;;;;;;;3.00;86.60;;;-151.14;100.00;62537.16;4937906;29;20252;-81
2023/01/26 04:38:57;;;;;;;;;;;3.00;86.50;;;1.63;100.00;62537.16;4953434;29;19928;-81
2023/01/26 04:41:26;;;;;;;;;;;3.00;86.50;;;-151.14;100.00;62537.16;4953660;29;19956;-81
2023/01/26 04:44:00;;;;;;;;;;;3.00;86.50;;;-151.14;100.00;62537.16;4969763;28;19923;-81
2023/01/26 04:46:28;;;;;;;;;;;3.00;86.60;;;-151.14;100.00;62537.16;4953670;29;19923;-81
2023/01/26 04:48:55;;;;;;;;;;;3.00;86.70;;;-151.14;100.00;62537.16;4954381;29;19923;-81
2023/01/26 04:51:27;;;;;;;;;;;3.00;86.70;;;-151.14;100.00;62537.16;4969612;28;19922;-81
2023/01/26 04:53:55;;;;;;;;;;;3.00;86.70;;;-151.14;100.00;62537.16;4937721;29;19922;-81
2023/01/26 04:56:24;;;;;;;;;;;3.00;86.70;;;-151.14;100.00;62537.16;4953756;29;20122;-81
2023/01/26 04:58:53;;;;;;;;;;;3.00;86.70;;;-151.14;100.00;62537.16;4969026;28;20121;-81
2023/01/26 05:01:22;;;;;;;;;;;3.00;86.80;;;-151.14;100.00;62537.16;4953538;29;19929;-81
2023/01/26 05:03:50;;;;;;;;;;;3.00;86.60;;;-151.14;100.00;62537.16;4937399;29;19929;-81
2023/01/26 05:06:18;;;;;;;;;;;3.00;86.60;;;-151.14;100.00;62537.16;4937638;29;19922;-81
2023/01/26 05:08:50;;;;;;;;;;;3.00;86.50;;;-151.14;100.00;62537.16;4968773;28;19923;-81
2023/01/26 05:11:18;;;;;;;;;;;3.00;86.60;;;-151.14;100.00;62537.16;4953300;29;19923;-81
2023/01/26 05:14:00;;;;;;;;;;;3.00;86.80;;;-151.14;100.00;62537.16;4953241;29;20116;-81
2023/01/26 05:16:48;;;;;;;;;;;2.90;86.60;;;-151.14;100.00;62537.16;4969301;28;19922;-81
2023/01/26 05:19:26;;;;;;;;;;;3.00;86.70;;;-151.14;100.00;62537.16;4952698;29;19922;-81
2023/01/26 05:22:07;;;;;;;;;;;2.90;86.60;;;-151.14;100.00;62537.16;4952841;29;20214;-81
2023/01/26 05:24:38;;;;;;;;;;;2.90;86.60;;;-151.14;100.00;62537.16;4952216;29;19946;-81
2023/01/26 05:27:23;;;;;;;;;;;2.90;86.70;;;-151.14;100.00;62537.16;4953019;29;20233;-81
2023/01/26 05:29:59;;;;;;;;;;;2.90;86.60;;;-151.14;100.00;62537.16;4952364;29;19928;-81
2023/01/26 05:32:27;;;;;;;;;;;2.90;86.50;;;1.56;100.00;62537.16;4952946;29;19928;-81
2023/01/26 05:34:56;;;;;;;;;;;2.90;86.70;;;1.55;100.00;62537.16;4953074;29;19922;-81
2023/01/26 05:37:24;;;;;;;;;;;2.90;86.70;;;-151.14;100.00;62537.16;4952813;29;19923;-81
2023/01/26 05:39:53;;;;;;;;;;;2.90;86.60;;;-151.14;100.00;62537.16;4968552;28;19928;-81
2023/01/26 05:42:22;;;;;;;;;;;2.90;86.60;;;1.56;100.00;62537.16;4953799;29;20229;-81
2023/01/26 05:44:49;;;;;;;;;;;2.90;86.60;;;-151.14;100.00;62537.16;4952971;29;19950;-81
2023/01/26 05:47:18;;;;;;;;;;;2.90;86.50;;;1.55;100.00;62537.16;4968819;28;19952;-81
2023/01/26 05:49:49;;;;;;;;;;;2.90;86.50;;;-151.14;100.00;62537.16;4952288;29;19923;-81
2023/01/26 05:52:25;;;;;;;;;;;2.90;86.50;;;-151.14;100.00;62537.16;4952652;29;19922;-81
2023/01/26 05:54:54;;;;;;;;;;;2.90;86.50;;;;;;4952778;29;20150;-81
2023/01/26 05:57:21;;;;;;;;;;;2.90;86.40;;;-151.14;100.00;62537.16;4951155;29;19929;-81
2023/01/26 05:59:57;;;;;;;;;;;2.90;86.40;;;-151.14;100.00;62537.16;4952253;29;19923;-81
2023/01/26 06:02:26;;;;;;;;;;;2.90;86.50;;;-151.14;100.00;62537.16;4968482;28;20211;-80
2023/01/26 06:04:54;;;;;;;;;;;2.90;86.60;;;1.55;100.00;62537.16;4968705;28;19946;-81
2023/01/26 06:07:22;;;;;;;;;;;2.90;86.50;;;-151.14;100.00;62537.16;4952428;29;19922;-81
2023/01/26 06:10:10;;;;;;;;;;;2.90;86.50;;;1.57;100.00;62537.16;4952092;29;20118;-81
2023/01/26 06:12:59;;;;;;;;;;;2.90;86.40;;;-151.14;100.00;62537.16;4952242;29;19922;-81
2023/01/26 06:15:47;;;;;;;;;;;2.90;86.40;;;-151.14;100.00;62537.16;4952434;29;20226;-81
2023/01/26 06:18:15;;;;;;;;;;;2.90;86.40;;;-151.14;100.00;62537.16;4952080;29;19945;-81
2023/01/26 06:20:49;;;;;;;;;;;3.00;86.20;;;18.08;100.00;62537.16;4952410;29;20236;-81
2023/01/26 06:23:17;;;;;;;;;;;3.00;86.20;;;-151.14;100.00;62537.16;4952302;29;19929;-81
2023/01/26 06:25:50;;;;;;;;;;;3.00;86.40;;;1.64;100.00;62537.16;4952612;29;19923;-81
2023/01/26 06:28:18;;;;;;;;;;;3.00;86.20;;;-151.14;100.00;62537.16;4951807;29;19929;-81
2023/01/26 06:30:46;;;;;;;;;;;3.00;86.20;;;-151.14;100.00;62537.16;4968370;28;19923;-81
2023/01/26 06:33:16;;;;;;;;;;;3.00;86.10;;;-151.14;100.00;62537.16;4952381;29;19929;-81
2023/01/26 06:35:44;;;;;;;;;;;3.00;86.00;;;-151.14;100.00;62537.16;4936947;29;20114;-80
2023/01/26 06:38:14;;;;;;;;;;;3.10;85.90;;;-151.14;100.00;62537.16;4971116;28;19931;-81
2023/01/26 06:40:43;;;;;;;;;;;3.10;85.70;;;-151.14;100.00;62537.16;4972023;28;19922;-81
2023/01/26 06:43:12;;;;;;;;;;;3.10;85.50;;;-151.14;100.00;62537.16;4955511;29;19929;-81
2023/01/26 06:45:40;;;;;;;;;;;3.10;85.60;;;1.80;100.00;62537.16;4955587;29;19929;-82
2023/01/26 06:48:09;;;;;;;;;;;3.20;85.50;;;-151.14;100.00;62537.16;4954817;29;19931;-82
2023/01/26 06:50:36;;;;;;;;;;;3.20;85.40;;;;;;4971495;28;19922;-82
2023/01/26 06:53:04;;;;;;;;;;;3.20;85.20;;;-151.14;100.00;62537.16;4955354;29;19930;-82
2023/01/26 06:56:01;;;;;;;;;;;3.20;85.10;;;-151.14;100.00;62537.16;4958887;28;19928;-82
2023/01/26 06:58:37;;;;;;;;;;;3.20;85.10;;;-151.14;100.00;62537.16;4954769;29;19929;-82
2023/01/26 07:01:09;;;;;;;;;;;3.20;85.00;;;-151.14;100.00;62537.16;4956927;29;19929;-82
2023/01/26 07:03:37;;;;;;;;;;;3.30;85.00;;;1.91;100.00;62537.16;4956724;29;19929;-82
2023/01/26 07:06:06;;;;;;;;;;;3.20;84.90;;;-151.14;100.00;62537.16;4955283;29;20113;-82
2023/01/26 07:08:34;;;;;;;;;;;3.30;84.90;;;-151.14;100.00;62537.16;4954951;29;20214;-82
2023/01/26 07:11:02;;;;;;;;;;;3.30;84.90;;;-151.14;100.00;62537.16;4947898;29;19930;-81
2023/01/26 07:13:30;;;;;;;;;;;3.30;84.80;;;-151.14;100.00;62537.16;4916931;29;19924;-81
2023/01/26 07:16:02;;;;;;;;;;;3.40;84.70;;;-151.14;100.00;62537.16;4917163;29;19923;-81
2023/01/26 07:18:30;;;;;;;;;;;3.40;84.70;;;-151.14;100.00;62537.16;4932248;29;19923;-81
2023/01/26 07:21:00;;;;;;;;;;;3.40;84.60;;;-151.14;100.00;62537.16;4932791;29;20244;-81
2023/01/26 07:23:29;;;;;;;;;;;3.50;84.60;;;-151.14;100.00;62537.16;4916660;29;19930;-81
2023/01/26 07:25:57;;;;;;;;;;;3.50;85.10;;;-151.14;100.00;62537.16;4916867;29;19930;-81
2023/01/26 07:28:25;;;;;;;;;;;3.50;84.10;;;-151.14;100.00;62537.16;4900611;29;19923;-81
2023/01/26 07:30:53;;;;;;;;;;;3.50;84.00;;;-151.14;100.00;62537.16;4932711;29;19945;-81
2023/01/26 07:33:22;;;;;;;;;;;3.50;83.90;;;-151.14;100.00;62537.16;4916522;29;19923;-81
2023/01/26 07:35:53;;;;;;;;;;;3.60;84.00;;;-151.14;100.00;62537.16;4932557;29;19930;-82
2023/01/26 07:38:21;;;;;;;;;;;3.60;83.80;;;-151.14;100.00;62537.16;4915975;29;19929;-81
2023/01/26 07:40:49;;;;;;;;;;;3.60;83.70;;;-151.14;100.00;62537.16;4901147;29;20119;-81
2023/01/26 07:43:17;;;;;;;;;;;3.60;83.70;;;-151.14;100.00;62537.16;4932355;29;19923;-81
2023/01/26 07:45:50;;;;;;;;;;;3.60;83.90;;;-151.14;100.00;62537.16;4916452;29;19923;-81
2023/01/26 07:48:22;;;;;;;;;;;3.70;84.00;;;-151.14;100.00;62537.16;4916493;29;19924;-81
2023/01/26 07:50:51;;;;;;;;;;;3.70;84.10;;;-151.14;100.00;62537.16;4916332;29;19949;-81
2023/01/26 07:53:20;;;;;;;;;;;3.70;83.90;;;-151.14;100.00;62537.16;4916360;29;19949;-81
2023/01/26 07:55:48;;;;;;;;;;;3.70;84.00;;;-151.14;100.00;62537.16;4916313;29;20122;-81
2023/01/26 07:58:16;;;;;;;;;;;3.70;84.00;;;;;;4916011;29;19923;-81
2023/01/26 08:00:46;;;;;;;;;;;3.80;83.90;;;2.57;100.00;62537.16;4916318;29;19923;-81
2023/01/26 08:03:14;;;;;;;;;;;3.80;83.70;;;-151.14;100.00;62537.16;4916396;29;19923;-81
2023/01/26 08:05:43;;;;;;;;;;;3.80;83.50;;;-151.14;100.00;62537.16;4916525;29;20084;-81
2023/01/26 08:08:11;;;;;;;;;;;3.90;83.50;;;-151.14;100.00;62537.16;4927722;29;19922;-81
2023/01/26 08:10:39;;;;;;;;;;;3.90;83.20;;;-151.14;100.00;62537.16;4955368;29;20245;-81
2023/01/26 08:13:07;;;;;;;;;;;3.90;82.90;;;-151.14;100.00;62537.16;4970290;28;20232;-81
2023/01/26 08:15:35;;;;;;;;;;;4.00;82.90;;;-151.14;100.00;62537.16;4969989;28;19944;-81
2023/01/26 08:18:03;;;;;;;;;;;4.00;82.80;;;2.77;100.00;62537.16;4937755;29;19932;-81
2023/01/26 08:20:31;;;;;;;;;;;4.00;82.90;;;-151.14;100.00;62537.16;4970191;28;19923;-81
2023/01/26 08:23:01;;;;;;;;;;;4.10;83.10;;;-151.14;100.00;62537.16;4953925;29;19923;-81
2023/01/26 08:25:29;;;;;;;;;;;4.10;83.10;;;-151.14;100.00;62537.16;4954089;29;19922;-81
2023/01/26 08:27:57;;;;;;;;;;;4.10;83.10;;;-151.14;100.00;62537.16;4953554;29;19929;-81
2023/01/26 08:30:24;;;;;;;;;;;4.10;83.10;;;18.10;100.00;62537.16;4969737;28;19922;-81
2023/01/26 08:32:53;;;;;;;;;;;4.10;82.90;;;-151.14;100.00;62537.16;4937995;29;19923;-81
2023/01/26 08:35:21;;;;;;;;;;;4.10;82.90;;;-151.14;100.00;62537.16;4953529;29;19923;-81
2023/01/26 08:37:49;;;;;;;;;;;4.20;82.90;;;-151.14;100.00;62537.16;4969768;28;20236;-82
2023/01/26 08:40:18;;;;;;;;;;;4.20;82.90;;;-151.14;100.00;62537.16;4953528;29;19923;-81
2023/01/26 08:42:46;;;;;;;;;;;4.20;82.90;;;-151.14;100.00;62537.16;4963351;28;19922;-81
2023/01/26 08:45:14;;;;;;;;;;;4.20;83.00;;;-151.14;100.00;62537.16;4934376;29;19922;-81
2023/01/26 08:47:44;;;;;;;;;;;4.20;83.00;;;-151.14;100.00;62537.16;4934650;29;19923;-81
2023/01/26 08:50:12;;;;;;;;;;;4.20;82.90;;;-151.14;100.00;62537.16;4917981;29;19923;-81
2023/01/26 08:52:40;;;;;;;;;;;4.20;82.90;;;-151.14;100.00;62537.16;4938343;29;19922;-81
2023/01/26 08:55:08;;;;;;;;;;;4.20;82.80;;;2.92;100.00;62537.16;4937603;29;19922;-81
2023/01/26 08:57:38;;;;;;;;;;;4.20;82.90;;;-151.14;100.00;62537.16;4953602;29;19929;-81
2023/01/26 09:00:07;;;;;;;;;;;4.20;82.80;;;2.94;100.00;62537.16;4951712;29;19923;-81
2023/01/26 09:02:35;;;;;;;;;;;4.20;82.70;;;-151.14;100.00;62537.16;4953348;29;20272;-81
2023/01/26 09:05:03;;;;;;;;;;;4.20;82.70;;;-151.14;100.00;62537.16;4937225;29;19931;-82
2023/01/26 09:07:31;;;;;;;;;;;4.20;82.70;;;-151.14;100.00;62537.16;4969312;28;19929;-81
2023/01/26 09:09:59;;;;;;;;;;;4.30;82.80;;;-151.14;100.00;62537.16;4936471;29;19928;-81
2023/01/26 09:12:27;;;;;;;;;;;4.30;82.70;;;-151.14;100.00;62537.16;4953303;29;20122;-81
2023/01/26 09:14:56;;;;;;;;;;;4.30;82.70;;;-151.14;100.00;62537.16;4933944;29;19922;-81
2023/01/26 09:17:24;;;;;;;;;;;4.30;82.70;;;-151.14;100.00;62537.16;4934066;29;19930;-81
2023/01/26 09:19:52;;;;;;;;;;;4.30;82.80;;;-151.14;100.00;62537.16;4952655;29;19923;-81
2023/01/26 09:22:20;;;;;;;;;;;4.30;82.70;;;-151.14;100.00;62537.16;4953054;29;19923;-81
2023/01/26 09:24:48;;;;;;;;;;;4.30;82.80;;;-151.14;100.00;62537.16;4953128;29;19929;-80
2023/01/26 09:27:16;;;;;;;;;;;4.30;82.70;;;-151.14;100.00;62537.16;4953137;29;19954;-80
2023/01/26 09:29:44;;;;;;;;;;;4.30;82.60;;;-151.14;100.00;62537.16;4936357;29;19929;-81
2023/01/26 09:32:13;;;;;;;;;;;4.30;82.70;;;-151.14;100.00;62537.16;4937184;29;19929;-80
2023/01/26 09:34:41;;;;;;;;;;;4.30;82.70;;;-151.14;100.00;62537.16;4952629;29;19929;-81
2023/01/26 09:37:09;;;;;;;;;;;4.30;82.70;;;-151.14;100.00;62537.16;4952867;29;19929;-81
2023/01/26 09:39:37;;;;;;;;;;;4.30;82.80;;;-151.14;100.00;62537.16;4968404;28;20134;-81
2023/01/26 09:42:17;;;;;;;;;;;4.30;82.70;;;-151.14;100.00;62537.16;4952927;29;20255;-81
2023/01/26 09:44:48;;;;;;;;;;;4.30;82.70;;;-151.14;100.00;62537.16;4952876;29;19931;-81
2023/01/26 09:47:21;;;;;;;;;;;4.30;82.70;;;-151.14;100.00;62537.16;4952691;29;19922;-80
2023/01/26 09:49:51;;;;;;;;;;;4.30;82.80;;;19.40;100.00;62537.16;4952636;29;20211;-81
2023/01/26 09:52:23;;;;;;;;;;;4.30;82.60;;;2.92;100.00;62537.16;4952578;29;19945;-81
2023/01/26 09:54:52;;;;;;;;;;;4.30;82.70;;;-151.14;100.00;62537.16;4952667;29;19923;-80
2023/01/26 09:57:23;;;;;;;;;;;4.20;82.50;;;2.89;100.00;62537.16;4952514;29;19922;-80
2023/01/26 09:59:53;;;;;;;;;;;4.20;82.60;;;-151.14;100.00;62537.16;4952054;29;19922;-81
2023/01/26 10:02:30;;;;;;;;;;;4.20;82.70;;;-151.14;100.00;62537.16;4968578;28;19929;-81
2023/01/26 10:05:01;;;;;;;;;;;4.20;82.70;;;-151.14;100.00;62537.16;4939651;29;20211;-80
2023/01/26 10:07:28;;;;;;;;;;;4.20;82.80;;;-151.14;100.00;62537.16;4933630;29;20222;-80
2023/01/26 10:09:57;;;;;;;;;;;4.20;82.80;;;-151.14;100.00;62537.16;4934141;29;20091;-81
2023/01/26 10:12:28;;;;;;;;;;;4.20;82.80;;;-151.14;100.00;62537.16;4948926;29;19923;-80
2023/01/26 10:14:59;;;;;;;;;;;4.20;82.70;;;-151.14;100.00;62537.16;4933387;29;20240;-81
2023/01/26 10:17:30;;;;;;;;;;;4.20;82.70;;;-151.14;100.00;62537.16;4933304;29;19923;-81
2023/01/26 10:20:02;;;;;;;;;;;4.20;82.60;;;-151.14;100.00;62537.16;4927476;29;19936;-80
2023/01/26 10:22:34;;;;;;;;;;;4.20;82.70;;;-151.14;100.00;62537.16;4952324;29;20207;-81
2023/01/26 10:25:02;;;;;;;;;;;4.20;82.70;;;-151.14;100.00;62537.16;4968136;28;20236;-81
2023/01/26 10:27:30;;;;;;;;;;;4.20;82.70;;;-151.14;100.00;62537.16;4952076;29;19922;-81
2023/01/26 10:29:59;;;;;;;;;;;4.20;82.70;;;-151.14;100.00;62537.16;4951729;29;19928;-80
2023/01/26 10:32:28;;;;;;;;;;;4.20;82.70;;;-151.14;100.00;62537.16;4951882;29;20363;-81
2023/01/26 10:34:56;;;;;;;;;;;4.20;82.70;;;-151.14;100.00;62537.16;4952285;29;19929;-80
2023/01/26 10:37:26;;;;;;;;;;;4.10;82.70;;;-151.14;100.00;62537.16;4952230;29;19923;-80
2023/01/26 10:39:59;;;;;;;;;;;4.10;82.80;;;-151.14;100.00;62537.16;4951732;29;19923;-81
2023/01/26 10:42:28;;;;;;;;;;;4.10;82.80;;;-151.14;100.00;62537.16;4953023;29;19929;-81
2023/01/26 10:44:56;;;;;;;;;;;4.10;82.80;;;-151.14;100.00;62537.16;4953088;29;19923;-80
2023/01/26 10:47:24;;;;;;;;;;;4.10;82.80;;;-151.14;100.00;62537.16;4952061;29;19922;-80
2023/01/26 10:49:54;;;;;;;;;;;4.10;82.70;;;-151.14;100.00;62537.16;4967917;28;20211;-80
2023/01/26 10:52:23;;;;;;;;;;;4.10;82.70;;;-151.14;100.00;62537.16;4967983;28;19922;-80
2023/01/26 10:54:52;;;;;;;;;;;4.10;82.70;;;-151.14;100.00;62537.16;4952116;29;19922;-80
2023/01/26 10:57:24;;;;;;;;;;;4.10;82.80;;;-151.14;100.00;62537.16;4935842;29;19922;-80
2023/01/26 10:59:54;;;;;;;;;;;4.10;82.80;;;-151.14;100.00;62537.16;4951550;29;19945;-81
2023/01/26 11:02:27;;;;;;;;;;;4.00;83.40;;;-151.14;100.00;62537.16;4967711;28;20116;-81
2023/01/26 11:05:05;;;;;;;;;;;4.00;82.70;;;-151.14;100.00;62537.16;4952020;29;19923;-81
2023/01/26 11:07:34;;;;;;;;;;;4.00;82.80;;;-151.14;100.00;62537.16;4951718;29;19923;-80
2023/01/26 11:10:17;;;;;;;;;;;4.00;82.90;;;-151.14;100.00;62537.16;4951503;29;19929;-81
2023/01/26 11:12:45;;;;;;;;;;;3.90;83.20;;;18.09;100.00;62537.16;4967546;28;19922;-81
2023/01/26 11:15:16;;;;;;;;;;;3.90;83.30;;;-151.14;100.00;62537.16;4951849;29;19937;-80
2023/01/26 11:17:49;;;;;;;;;;;3.80;83.40;;;-151.14;100.00;62537.16;4951712;29;19923;-80
2023/01/26 11:20:34;;;;;;;;;;;3.80;83.50;;;-151.14;100.00;62537.16;4951386;29;20118;-80
2023/01/26 11:23:04;;;;;;;;;;;3.80;83.60;;;-151.14;100.00;62537.16;4968554;28;19923;-80
2023/01/26 11:25:35;;;;;;;;;;;3.80;83.70;;;-151.14;100.00;62537.16;4955061;29;19927;-80
2023/01/26 11:28:13;;;;;;;;;;;3.70;83.90;;;-151.14;100.00;62537.16;4954335;29;19922;-81
2023/01/26 11:31:09;;;;;;;;;;;3.70;84.00;;;-151.14;100.00;62537.16;4947481;29;19929;-80
2023/01/26 11:33:39;;;;;;;;;;;3.70;84.00;;;-151.14;100.00;62537.16;4919774;29;19923;-80
2023/01/26 11:36:11;;;;;;;;;;;3.70;84.20;;;-151.14;100.00;62537.16;4945539;29;19929;-80
2023/01/26 11:38:40;;;;;;;;;;;3.70;84.20;;;-151.14;100.00;62537.16;4970536;28;19929;-81
2023/01/26 11:41:29;;;;;;;;;;;3.70;84.20;;;-151.14;100.00;62537.16;4961595;28;20211;-81
2023/01/26 11:44:25;;;;;;;;;;;3.60;84.10;;;-151.14;100.00;62537.16;4935377;29;19922;-80
2023/01/26 11:47:12;;;;;;;;;;;3.60;84.10;;;-151.14;100.00;62537.16;4935512;29;19983;-81
2023/01/26 11:49:51;;;;;;;;;;;3.60;84.20;;;-151.14;100.00;62537.16;4934873;29;20134;-80
2023/01/26 11:52:24;;;;;;;;;;;3.60;84.20;;;-151.14;100.00;62537.16;4935153;29;20218;-80
2023/01/26 11:55:22;;;;;;;;;;;3.60;84.20;;;-151.14;100.00;62537.16;4935460;29;20219;-81
2023/01/26 11:57:57;;;;;;;;;;;3.60;84.20;;;-151.14;100.00;62537.16;4909185;29;20214;-80
2023/01/26 12:00:28;;;;;;;;;;;3.60;84.20;;;2.25;100.00;62537.16;4932417;29;19923;-81
2023/01/26 12:02:59;;;;;;;;;;;3.60;84.20;;;-151.14;100.00;62537.16;4917461;29;19923;-81
2023/01/26 12:05:30;;;;;;;;;;;3.60;84.10;;;18.10;100.00;62537.16;4916732;29;19929;-81
2023/01/26 12:08:00;;;;;;;;;;;3.60;84.10;;;2.26;100.00;62537.16;4916956;29;19923;-80
2023/01/26 12:10:30;;;;;;;;;;;3.60;84.10;;;-151.14;100.00;62537.16;4916463;29;19923;-81
2023/01/26 12:13:01;;;;;;;;;;;3.60;84.10;;;-151.14;100.00;62537.16;4931708;29;19923;-81